sensor_id;sensor_type;location;lat;lon;timestamp;temperature;humidity
22678;DHT22;26259;50.214;18.620;2022-11-23T00:00:36;2.00;99.90
22678;DHT22;26259;50.214;18.620;2022-11-23T00:03:02;2.00;99.90
22678;DHT22;26259;50.214;18.620;2022-11-23T00:05:29;1.90;99.90
22678;DHT22;26259;50.214;18.620;2022-11-23T00:07:55;2.00;99.90
22678;DHT22;26259;50.214;18.620;2022-11-23T00:10:20;2.00;99.90
22678;DHT22;26259;50.214;18.620;2022-11-23T00:12:46;2.00;99.90
22678;DHT22;26259;50.214;18.620;2022-11-23T00:15:13;2.00;99.90
22678;DHT22;26259;50.214;18.620;2022-11-23T00:17:39;2.00;99.90
22678;DHT22;26259;50.214;18.620;2022-11-23T00:20:07;2.10;99.90
22678;DHT22;26259;50.214;18.620;2022-11-23T00:22:33;2.10;99.90
22678;DHT22;26259;50.214;18.620;2022-11-23T00:24:58;2.10;99.90
22678;DHT22;26259;50.214;18.620;2022-11-23T00:27:24;2.10;99.90
22678;DHT22;26259;50.214;18.620;2022-11-23T00:29:50;2.00;99.90
22678;DHT22;26259;50.214;18.620;2022-11-23T00:32:15;2.00;99.90
22678;DHT22;26259;50.214;18.620;2022-11-23T00:34:41;2.00;99.90
22678;DHT22;26259;50.214;18.620;2022-11-23T00:37:06;2.00;99.90
22678;DHT22;26259;50.214;18.620;2022-11-23T00:39:32;1.90;99.90
22678;DHT22;26259;50.214;18.620;2022-11-23T00:41:58;1.90;99.90
22678;DHT22;26259;50.214;18.620;2022-11-23T00:44:23;1.90;99.90
22678;DHT22;26259;50.214;18.620;2022-11-23T00:46:49;1.90;99.90
22678;DHT22;26259;50.214;18.620;2022-11-23T00:49:14;1.90;99.90
22678;DHT22;26259;50.214;18.620;2022-11-23T00:51:40;1.80;99.90
22678;DHT22;26259;50.214;18.620;2022-11-23T00:54:06;1.80;99.90
22678;DHT22;26259;50.214;18.620;2022-11-23T00:56:33;1.80;99.90
22678;DHT22;26259;50.214;18.620;2022-11-23T00:59:00;1.70;99.90
22678;DHT22;26259;50.214;18.620;2022-11-23T01:01:31;1.80;99.90
22678;DHT22;26259;50.214;18.620;2022-11-23T01:04:04;1.70;99.90
22678;DHT22;26259;50.214;18.620;2022-11-23T01:06:36;1.70;99.90
22678;DHT22;26259;50.214;18.620;2022-11-23T01:09:15;1.60;99.90
22678;DHT22;26259;50.214;18.620;2022-11-23T01:11:45;1.60;99.90
22678;DHT22;26259;50.214;18.620;2022-11-23T01:14:11;1.60;99.90
22678;DHT22;26259;50.214;18.620;2022-11-23T01:16:38;1.60;99.90
22678;DHT22;26259;50.214;18.620;2022-11-23T01:19:07;1.50;99.90
22678;DHT22;26259;50.214;18.620;2022-11-23T01:21:34;1.50;99.90
22678;DHT22;26259;50.214;18.620;2022-11-23T01:24:05;1.60;99.90
22678;DHT22;26259;50.214;18.620;2022-11-23T01:26:31;1.60;99.90
22678;DHT22;26259;50.214;18.620;2022-11-23T01:28:57;1.50;99.90
22678;DHT22;26259;50.214;18.620;2022-11-23T01:31:24;1.60;99.90
22678;DHT22;26259;50.214;18.620;2022-11-23T01:33:58;1.60;99.90
22678;DHT22;26259;50.214;18.620;2022-11-23T01:36:29;1.60;99.90
22678;DHT22;26259;50.214;18.620;2022-11-23T01:38:55;1.50;99.90
22678;DHT22;26259;50.214;18.620;2022-11-23T01:41:24;1.60;99.90
22678;DHT22;26259;50.214;18.620;2022-11-23T01:43:51;1.60;99.90
22678;DHT22;26259;50.214;18.620;2022-11-23T01:46:17;1.60;99.90
22678;DHT22;26259;50.214;18.620;2022-11-23T01:49:01;1.60;99.90
22678;DHT22;26259;50.214;18.620;2022-11-23T01:51:33;1.60;99.90
22678;DHT22;26259;50.214;18.620;2022-11-23T01:54:05;1.50;99.90
22678;DHT22;26259;50.214;18.620;2022-11-23T01:56:36;1.50;99.90
22678;DHT22;26259;50.214;18.620;2022-11-23T01:59:10;1.50;99.90
22678;DHT22;26259;50.214;18.620;2022-11-23T02:01:36;1.50;99.90
22678;DHT22;26259;50.214;18.620;2022-11-23T02:04:02;1.50;99.90
22678;DHT22;26259;50.214;18.620;2022-11-23T02:06:29;1.50;99.90
22678;DHT22;26259;50.214;18.620;2022-11-23T02:08:56;1.50;99.90
22678;DHT22;26259;50.214;18.620;2022-11-23T02:11:22;1.50;99.90
22678;DHT22;26259;50.214;18.620;2022-11-23T02:13:49;1.50;99.90
22678;DHT22;26259;50.214;18.620;2022-11-23T02:16:16;1.50;99.90
22678;DHT22;26259;50.214;18.620;2022-11-23T02:18:44;1.60;99.90
22678;DHT22;26259;50.214;18.620;2022-11-23T02:21:11;1.60;99.90
22678;DHT22;26259;50.214;18.620;2022-11-23T02:29:02;1.60;99.90
22678;DHT22;26259;50.214;18.620;2022-11-23T02:31:30;1.50;99.90
22678;DHT22;26259;50.214;18.620;2022-11-23T02:33:56;1.50;99.90
22678;DHT22;26259;50.214;18.620;2022-11-23T02:36:35;1.50;99.90
22678;DHT22;26259;50.214;18.620;2022-11-23T02:39:09;1.50;99.90
22678;DHT22;26259;50.214;18.620;2022-11-23T02:41:38;1.50;99.90
22678;DHT22;26259;50.214;18.620;2022-11-23T02:44:08;1.50;99.90
22678;DHT22;26259;50.214;18.620;2022-11-23T02:46:36;1.40;99.90
22678;DHT22;26259;50.214;18.620;2022-11-23T02:49:02;1.50;99.90
22678;DHT22;26259;50.214;18.620;2022-11-23T02:51:27;1.40;99.90
22678;DHT22;26259;50.214;18.620;2022-11-23T02:53:53;1.40;99.90
22678;DHT22;26259;50.214;18.620;2022-11-23T02:56:19;1.40;99.90
22678;DHT22;26259;50.214;18.620;2022-11-23T02:58:44;1.40;99.90
22678;DHT22;26259;50.214;18.620;2022-11-23T03:01:10;1.30;99.90
22678;DHT22;26259;50.214;18.620;2022-11-23T03:03:35;1.30;99.90
22678;DHT22;26259;50.214;18.620;2022-11-23T03:06:01;1.30;99.90
22678;DHT22;26259;50.214;18.620;2022-11-23T03:08:26;1.30;99.90
22678;DHT22;26259;50.214;18.620;2022-11-23T03:10:52;1.30;99.90
22678;DHT22;26259;50.214;18.620;2022-11-23T03:13:17;1.30;99.90
22678;DHT22;26259;50.214;18.620;2022-11-23T03:15:43;1.20;99.90
22678;DHT22;26259;50.214;18.620;2022-11-23T03:18:09;1.20;99.90
22678;DHT22;26259;50.214;18.620;2022-11-23T03:20:35;1.20;99.90
22678;DHT22;26259;50.214;18.620;2022-11-23T03:23:01;1.20;99.90
22678;DHT22;26259;50.214;18.620;2022-11-23T03:25:26;1.20;99.90
22678;DHT22;26259;50.214;18.620;2022-11-23T03:27:52;1.20;99.90
22678;DHT22;26259;50.214;18.620;2022-11-23T03:30:18;1.20;99.90
22678;DHT22;26259;50.214;18.620;2022-11-23T03:32:43;1.20;99.90
22678;DHT22;26259;50.214;18.620;2022-11-23T03:35:09;1.20;99.90
22678;DHT22;26259;50.214;18.620;2022-11-23T03:37:34;1.20;99.90
22678;DHT22;26259;50.214;18.620;2022-11-23T03:40:00;1.20;99.90
22678;DHT22;26259;50.214;18.620;2022-11-23T03:42:25;1.20;99.90
22678;DHT22;26259;50.214;18.620;2022-11-23T03:44:51;1.30;99.90
22678;DHT22;26259;50.214;18.620;2022-11-23T03:47:16;1.20;99.90
22678;DHT22;26259;50.214;18.620;2022-11-23T03:49:42;1.10;99.90
22678;DHT22;26259;50.214;18.620;2022-11-23T03:52:08;1.10;99.90
22678;DHT22;26259;50.214;18.620;2022-11-23T03:54:33;1.10;99.90
22678;DHT22;26259;50.214;18.620;2022-11-23T03:56:59;1.10;99.90
22678;DHT22;26259;50.214;18.620;2022-11-23T03:59:24;1.10;99.90
22678;DHT22;26259;50.214;18.620;2022-11-23T04:01:50;1.00;99.90
22678;DHT22;26259;50.214;18.620;2022-11-23T04:04:15;1.00;99.90
22678;DHT22;26259;50.214;18.620;2022-11-23T04:06:43;1.00;99.90
22678;DHT22;26259;50.214;18.620;2022-11-23T04:09:11;1.00;99.90
22678;DHT22;26259;50.214;18.620;2022-11-23T04:11:36;1.00;99.90
22678;DHT22;26259;50.214;18.620;2022-11-23T04:14:02;1.00;99.90
22678;DHT22;26259;50.214;18.620;2022-11-23T04:16:27;1.00;99.90
22678;DHT22;26259;50.214;18.620;2022-11-23T04:18:53;1.00;99.90
22678;DHT22;26259;50.214;18.620;2022-11-23T04:21:19;1.00;99.90
22678;DHT22;26259;50.214;18.620;2022-11-23T04:23:44;1.00;99.90
22678;DHT22;26259;50.214;18.620;2022-11-23T04:26:10;1.00;99.90
22678;DHT22;26259;50.214;18.620;2022-11-23T04:28:35;1.00;99.90
22678;DHT22;26259;50.214;18.620;2022-11-23T04:31:01;0.90;99.90
22678;DHT22;26259;50.214;18.620;2022-11-23T04:33:26;0.90;99.90
22678;DHT22;26259;50.214;18.620;2022-11-23T04:35:52;0.90;99.90
22678;DHT22;26259;50.214;18.620;2022-11-23T04:38:18;0.90;99.90
22678;DHT22;26259;50.214;18.620;2022-11-23T04:40:45;0.80;99.90
22678;DHT22;26259;50.214;18.620;2022-11-23T04:43:11;0.80;99.90
22678;DHT22;26259;50.214;18.620;2022-11-23T04:45:38;0.80;99.90
22678;DHT22;26259;50.214;18.620;2022-11-23T04:48:04;0.90;99.90
22678;DHT22;26259;50.214;18.620;2022-11-23T04:50:30;0.80;99.90
22678;DHT22;26259;50.214;18.620;2022-11-23T04:52:55;0.80;99.90
22678;DHT22;26259;50.214;18.620;2022-11-23T04:55:21;0.80;99.90
22678;DHT22;26259;50.214;18.620;2022-11-23T04:57:46;0.80;99.90
22678;DHT22;26259;50.214;18.620;2022-11-23T05:00:12;0.80;99.90
22678;DHT22;26259;50.214;18.620;2022-11-23T05:02:38;0.90;99.90
22678;DHT22;26259;50.214;18.620;2022-11-23T05:05:04;0.90;99.90
22678;DHT22;26259;50.214;18.620;2022-11-23T05:07:30;1.00;99.90
22678;DHT22;26259;50.214;18.620;2022-11-23T05:09:55;1.00;99.90
22678;DHT22;26259;50.214;18.620;2022-11-23T05:12:21;1.00;99.90
22678;DHT22;26259;50.214;18.620;2022-11-23T05:14:46;1.00;99.90
22678;DHT22;26259;50.214;18.620;2022-11-23T05:17:12;1.00;99.90
22678;DHT22;26259;50.214;18.620;2022-11-23T05:19:38;1.00;99.90
22678;DHT22;26259;50.214;18.620;2022-11-23T05:22:03;1.00;99.90
22678;DHT22;26259;50.214;18.620;2022-11-23T05:24:29;1.00;99.90
22678;DHT22;26259;50.214;18.620;2022-11-23T05:26:54;1.00;99.90
22678;DHT22;26259;50.214;18.620;2022-11-23T05:29:20;1.00;99.90
22678;DHT22;26259;50.214;18.620;2022-11-23T05:31:45;0.90;99.90
22678;DHT22;26259;50.214;18.620;2022-11-23T05:34:11;0.90;99.90
22678;DHT22;26259;50.214;18.620;2022-11-23T05:36:37;0.90;99.90
22678;DHT22;26259;50.214;18.620;2022-11-23T05:39:02;0.90;99.90
22678;DHT22;26259;50.214;18.620;2022-11-23T05:41:28;0.90;99.90
22678;DHT22;26259;50.214;18.620;2022-11-23T05:43:53;0.90;99.90
22678;DHT22;26259;50.214;18.620;2022-11-23T05:46:19;0.80;99.90
22678;DHT22;26259;50.214;18.620;2022-11-23T05:48:44;0.80;99.90
22678;DHT22;26259;50.214;18.620;2022-11-23T05:51:10;0.80;99.90
22678;DHT22;26259;50.214;18.620;2022-11-23T05:53:35;0.80;99.90
22678;DHT22;26259;50.214;18.620;2022-11-23T05:56:01;0.80;99.90
22678;DHT22;26259;50.214;18.620;2022-11-23T05:58:28;0.80;99.90
22678;DHT22;26259;50.214;18.620;2022-11-23T06:00:59;0.80;99.90
22678;DHT22;26259;50.214;18.620;2022-11-23T06:03:26;0.80;99.90
22678;DHT22;26259;50.214;18.620;2022-11-23T06:05:51;0.80;99.90
22678;DHT22;26259;50.214;18.620;2022-11-23T06:08:17;0.80;99.90
22678;DHT22;26259;50.214;18.620;2022-11-23T06:10:43;0.80;99.90
22678;DHT22;26259;50.214;18.620;2022-11-23T06:13:09;0.70;99.90
22678;DHT22;26259;50.214;18.620;2022-11-23T06:15:34;0.70;99.90
22678;DHT22;26259;50.214;18.620;2022-11-23T06:18:00;0.70;99.90
22678;DHT22;26259;50.214;18.620;2022-11-23T06:20:27;0.70;99.90
22678;DHT22;26259;50.214;18.620;2022-11-23T06:22:54;0.70;99.90
22678;DHT22;26259;50.214;18.620;2022-11-23T06:25:20;0.70;99.90
22678;DHT22;26259;50.214;18.620;2022-11-23T06:27:56;0.70;99.90
22678;DHT22;26259;50.214;18.620;2022-11-23T06:30:22;0.70;99.90
22678;DHT22;26259;50.214;18.620;2022-11-23T06:32:48;0.80;99.90
22678;DHT22;26259;50.214;18.620;2022-11-23T06:35:14;0.80;99.90
22678;DHT22;26259;50.214;18.620;2022-11-23T06:37:39;0.80;99.90
22678;DHT22;26259;50.214;18.620;2022-11-23T06:40:05;0.90;99.90
22678;DHT22;26259;50.214;18.620;2022-11-23T06:42:31;1.00;99.90
22678;DHT22;26259;50.214;18.620;2022-11-23T06:44:57;1.00;99.90
22678;DHT22;26259;50.214;18.620;2022-11-23T06:47:22;1.00;99.90
22678;DHT22;26259;50.214;18.620;2022-11-23T06:49:48;1.10;99.90
22678;DHT22;26259;50.214;18.620;2022-11-23T06:52:13;1.10;99.90
22678;DHT22;26259;50.214;18.620;2022-11-23T06:54:39;1.10;99.90
22678;DHT22;26259;50.214;18.620;2022-11-23T06:57:08;1.10;99.90
22678;DHT22;26259;50.214;18.620;2022-11-23T06:59:34;1.20;99.90
22678;DHT22;26259;50.214;18.620;2022-11-23T07:01:59;1.20;99.90
22678;DHT22;26259;50.214;18.620;2022-11-23T07:04:25;1.30;99.90
22678;DHT22;26259;50.214;18.620;2022-11-23T07:06:51;1.30;99.90
22678;DHT22;26259;50.214;18.620;2022-11-23T07:09:16;1.40;99.90
22678;DHT22;26259;50.214;18.620;2022-11-23T07:11:42;1.40;99.90
22678;DHT22;26259;50.214;18.620;2022-11-23T07:14:08;1.40;99.90
22678;DHT22;26259;50.214;18.620;2022-11-23T07:16:33;1.50;99.90
22678;DHT22;26259;50.214;18.620;2022-11-23T07:18:59;1.50;99.90
22678;DHT22;26259;50.214;18.620;2022-11-23T07:21:25;1.50;99.90
22678;DHT22;26259;50.214;18.620;2022-11-23T07:23:50;1.50;99.90
22678;DHT22;26259;50.214;18.620;2022-11-23T07:26:16;1.60;99.90
22678;DHT22;26259;50.214;18.620;2022-11-23T07:28:41;1.70;99.90
22678;DHT22;26259;50.214;18.620;2022-11-23T07:31:07;1.70;99.90
22678;DHT22;26259;50.214;18.620;2022-11-23T07:33:33;1.80;99.90
22678;DHT22;26259;50.214;18.620;2022-11-23T07:36:02;1.80;99.90
22678;DHT22;26259;50.214;18.620;2022-11-23T07:38:28;1.90;99.90
22678;DHT22;26259;50.214;18.620;2022-11-23T07:40:54;1.90;99.90
22678;DHT22;26259;50.214;18.620;2022-11-23T07:43:19;1.90;99.90
22678;DHT22;26259;50.214;18.620;2022-11-23T07:45:45;2.00;99.90
22678;DHT22;26259;50.214;18.620;2022-11-23T07:48:11;2.10;99.90
22678;DHT22;26259;50.214;18.620;2022-11-23T07:50:38;2.10;99.90
22678;DHT22;26259;50.214;18.620;2022-11-23T07:53:05;2.10;99.90
22678;DHT22;26259;50.214;18.620;2022-11-23T07:55:33;2.20;99.90
22678;DHT22;26259;50.214;18.620;2022-11-23T07:57:59;2.20;99.90
22678;DHT22;26259;50.214;18.620;2022-11-23T08:00:26;2.20;99.90
22678;DHT22;26259;50.214;18.620;2022-11-23T08:02:51;2.20;99.90
22678;DHT22;26259;50.214;18.620;2022-11-23T08:05:17;2.30;99.90
22678;DHT22;26259;50.214;18.620;2022-11-23T08:07:44;2.30;99.90
22678;DHT22;26259;50.214;18.620;2022-11-23T08:10:11;2.30;99.90
22678;DHT22;26259;50.214;18.620;2022-11-23T08:12:37;2.40;99.90
22678;DHT22;26259;50.214;18.620;2022-11-23T08:15:03;2.50;99.90
22678;DHT22;26259;50.214;18.620;2022-11-23T08:17:29;2.50;99.90
22678;DHT22;26259;50.214;18.620;2022-11-23T08:19:54;2.50;99.90
22678;DHT22;26259;50.214;18.620;2022-11-23T08:22:20;2.60;99.90
22678;DHT22;26259;50.214;18.620;2022-11-23T08:24:46;2.70;99.90
22678;DHT22;26259;50.214;18.620;2022-11-23T08:27:12;2.80;99.90
22678;DHT22;26259;50.214;18.620;2022-11-23T08:29:38;2.80;99.90
22678;DHT22;26259;50.214;18.620;2022-11-23T08:32:04;2.90;99.90
22678;DHT22;26259;50.214;18.620;2022-11-23T08:34:29;2.90;99.90
22678;DHT22;26259;50.214;18.620;2022-11-23T08:36:55;3.00;99.90
22678;DHT22;26259;50.214;18.620;2022-11-23T08:39:21;3.00;99.90
22678;DHT22;26259;50.214;18.620;2022-11-23T08:41:47;3.00;99.90
22678;DHT22;26259;50.214;18.620;2022-11-23T08:44:12;3.00;99.90
22678;DHT22;26259;50.214;18.620;2022-11-23T08:46:38;3.00;99.90
22678;DHT22;26259;50.214;18.620;2022-11-23T08:49:04;3.10;99.90
22678;DHT22;26259;50.214;18.620;2022-11-23T08:51:30;3.10;99.90
22678;DHT22;26259;50.214;18.620;2022-11-23T08:53:56;3.10;99.90
22678;DHT22;26259;50.214;18.620;2022-11-23T08:56:22;3.10;99.90
22678;DHT22;26259;50.214;18.620;2022-11-23T08:58:47;3.10;99.90
22678;DHT22;26259;50.214;18.620;2022-11-23T09:01:15;3.10;99.90
22678;DHT22;26259;50.214;18.620;2022-11-23T09:03:41;3.10;99.90
22678;DHT22;26259;50.214;18.620;2022-11-23T09:06:07;3.10;99.90
22678;DHT22;26259;50.214;18.620;2022-11-23T09:08:34;3.20;99.90
22678;DHT22;26259;50.214;18.620;2022-11-23T09:11:01;3.20;99.90
22678;DHT22;26259;50.214;18.620;2022-11-23T09:13:27;3.30;99.90
22678;DHT22;26259;50.214;18.620;2022-11-23T09:15:57;3.30;99.90
22678;DHT22;26259;50.214;18.620;2022-11-23T09:18:24;3.40;99.90
22678;DHT22;26259;50.214;18.620;2022-11-23T09:20:49;3.40;99.90
22678;DHT22;26259;50.214;18.620;2022-11-23T09:23:15;3.40;99.90
22678;DHT22;26259;50.214;18.620;2022-11-23T09:25:40;3.40;99.90
22678;DHT22;26259;50.214;18.620;2022-11-23T09:28:07;3.40;99.90
22678;DHT22;26259;50.214;18.620;2022-11-23T09:30:33;3.50;99.90
22678;DHT22;26259;50.214;18.620;2022-11-23T09:32:59;3.60;99.90
22678;DHT22;26259;50.214;18.620;2022-11-23T09:35:25;3.70;99.90
22678;DHT22;26259;50.214;18.620;2022-11-23T09:37:57;3.70;99.90
22678;DHT22;26259;50.214;18.620;2022-11-23T09:40:27;3.60;99.90
22678;DHT22;26259;50.214;18.620;2022-11-23T09:43:19;3.70;99.90
22678;DHT22;26259;50.214;18.620;2022-11-23T09:45:52;3.80;99.90
22678;DHT22;26259;50.214;18.620;2022-11-23T09:51:18;3.80;99.90
22678;DHT22;26259;50.214;18.620;2022-11-23T09:53:52;3.90;99.90
22678;DHT22;26259;50.214;18.620;2022-11-23T09:56:22;3.90;99.90
22678;DHT22;26259;50.214;18.620;2022-11-23T09:58:55;4.00;99.90
22678;DHT22;26259;50.214;18.620;2022-11-23T10:01:21;4.10;99.90
22678;DHT22;26259;50.214;18.620;2022-11-23T10:03:47;4.10;99.90
22678;DHT22;26259;50.214;18.620;2022-11-23T10:06:21;4.10;99.90
22678;DHT22;26259;50.214;18.620;2022-11-23T10:15:12;4.10;99.90
22678;DHT22;26259;50.214;18.620;2022-11-23T10:23:02;4.20;99.90
22678;DHT22;26259;50.214;18.620;2022-11-23T10:25:49;4.30;99.90
22678;DHT22;26259;50.214;18.620;2022-11-23T10:28:18;4.40;99.90
22678;DHT22;26259;50.214;18.620;2022-11-23T10:31:15;4.40;99.90
22678;DHT22;26259;50.214;18.620;2022-11-23T10:36:14;4.40;99.90
22678;DHT22;26259;50.214;18.620;2022-11-23T10:38:40;4.50;99.90
22678;DHT22;26259;50.214;18.620;2022-11-23T10:41:09;4.40;99.90
22678;DHT22;26259;50.214;18.620;2022-11-23T10:48:48;4.40;99.90
22678;DHT22;26259;50.214;18.620;2022-11-23T10:54:23;4.40;99.90
22678;DHT22;26259;50.214;18.620;2022-11-23T10:56:51;4.30;99.90
22678;DHT22;26259;50.214;18.620;2022-11-23T10:59:39;4.40;99.90
22678;DHT22;26259;50.214;18.620;2022-11-23T11:02:14;4.40;99.90
22678;DHT22;26259;50.214;18.620;2022-11-23T11:04:41;4.20;99.90
22678;DHT22;26259;50.214;18.620;2022-11-23T11:07:35;4.40;99.90
22678;DHT22;26259;50.214;18.620;2022-11-23T11:10:02;4.50;99.90
22678;DHT22;26259;50.214;18.620;2022-11-23T11:12:31;4.60;99.90
22678;DHT22;26259;50.214;18.620;2022-11-23T11:15:17;4.70;99.90
22678;DHT22;26259;50.214;18.620;2022-11-23T11:17:43;4.80;99.90
22678;DHT22;26259;50.214;18.620;2022-11-23T11:22:49;4.80;99.90
22678;DHT22;26259;50.214;18.620;2022-11-23T11:25:35;5.00;99.90
22678;DHT22;26259;50.214;18.620;2022-11-23T11:28:04;5.10;99.90
22678;DHT22;26259;50.214;18.620;2022-11-23T11:30:43;5.20;99.90
22678;DHT22;26259;50.214;18.620;2022-11-23T11:33:20;5.30;99.90
22678;DHT22;26259;50.214;18.620;2022-11-23T11:35:51;5.30;99.90
22678;DHT22;26259;50.214;18.620;2022-11-23T11:38:32;5.30;99.90
22678;DHT22;26259;50.214;18.620;2022-11-23T11:41:04;5.50;99.90
22678;DHT22;26259;50.214;18.620;2022-11-23T11:43:38;5.60;99.90
22678;DHT22;26259;50.214;18.620;2022-11-23T11:46:11;5.70;99.90
22678;DHT22;26259;50.214;18.620;2022-11-23T11:48:51;5.70;99.90
22678;DHT22;26259;50.214;18.620;2022-11-23T11:51:31;5.60;99.90
22678;DHT22;26259;50.214;18.620;2022-11-23T11:57:01;5.40;99.90
22678;DHT22;26259;50.214;18.620;2022-11-23T11:59:46;5.40;99.90
22678;DHT22;26259;50.214;18.620;2022-11-23T12:02:32;5.20;99.90
22678;DHT22;26259;50.214;18.620;2022-11-23T12:10:25;4.90;99.90
22678;DHT22;26259;50.214;18.620;2022-11-23T12:12:51;4.90;99.90
22678;DHT22;26259;50.214;18.620;2022-11-23T12:15:19;4.90;99.90
22678;DHT22;26259;50.214;18.620;2022-11-23T12:20:29;4.70;99.90
22678;DHT22;26259;50.214;18.620;2022-11-23T12:26:35;4.80;99.90
22678;DHT22;26259;50.214;18.620;2022-11-23T12:31:48;4.90;99.90
22678;DHT22;26259;50.214;18.620;2022-11-23T12:34:33;5.00;99.90
22678;DHT22;26259;50.214;18.620;2022-11-23T12:42:44;4.90;99.90
22678;DHT22;26259;50.214;18.620;2022-11-23T12:55:53;4.80;99.90
22678;DHT22;26259;50.214;18.620;2022-11-23T12:58:29;4.90;99.90
22678;DHT22;26259;50.214;18.620;2022-11-23T13:06:53;4.70;99.90
22678;DHT22;26259;50.214;18.620;2022-11-23T13:17:34;4.60;99.90
22678;DHT22;26259;50.214;18.620;2022-11-23T13:20:20;4.50;99.90
22678;DHT22;26259;50.214;18.620;2022-11-23T13:22:48;4.50;99.90
22678;DHT22;26259;50.214;18.620;2022-11-23T13:25:27;4.40;99.90
22678;DHT22;26259;50.214;18.620;2022-11-23T13:27:55;4.30;99.90
22678;DHT22;26259;50.214;18.620;2022-11-23T13:30:28;4.30;99.90
22678;DHT22;26259;50.214;18.620;2022-11-23T13:42:54;4.10;99.90
22678;DHT22;26259;50.214;18.620;2022-11-23T13:45:27;4.10;99.90
22678;DHT22;26259;50.214;18.620;2022-11-23T13:50:30;4.00;99.90
22678;DHT22;26259;50.214;18.620;2022-11-23T13:52:56;3.90;99.90
22678;DHT22;26259;50.214;18.620;2022-11-23T13:55:34;3.90;99.90
22678;DHT22;26259;50.214;18.620;2022-11-23T14:00:56;4.00;99.90
22678;DHT22;26259;50.214;18.620;2022-11-23T14:09:00;3.80;99.90
22678;DHT22;26259;50.214;18.620;2022-11-23T14:11:27;3.80;99.90
22678;DHT22;26259;50.214;18.620;2022-11-23T14:13:58;3.80;99.90
22678;DHT22;26259;50.214;18.620;2022-11-23T14:22:08;3.60;99.90
22678;DHT22;26259;50.214;18.620;2022-11-23T14:25:11;3.60;99.90
22678;DHT22;26259;50.214;18.620;2022-11-23T14:27:50;3.50;99.90
22678;DHT22;26259;50.214;18.620;2022-11-23T14:38:46;3.40;99.90
22678;DHT22;26259;50.214;18.620;2022-11-23T14:41:22;3.40;99.90
22678;DHT22;26259;50.214;18.620;2022-11-23T14:43:49;3.30;99.90
22678;DHT22;26259;50.214;18.620;2022-11-23T14:46:18;3.30;99.90
22678;DHT22;26259;50.214;18.620;2022-11-23T14:48:45;3.30;99.90
22678;DHT22;26259;50.214;18.620;2022-11-23T14:51:22;3.30;99.90
22678;DHT22;26259;50.214;18.620;2022-11-23T14:53:50;3.30;99.90
22678;DHT22;26259;50.214;18.620;2022-11-23T14:56:38;3.30;99.90
22678;DHT22;26259;50.214;18.620;2022-11-23T14:59:09;3.30;99.90
22678;DHT22;26259;50.214;18.620;2022-11-23T15:01:44;3.30;99.90
22678;DHT22;26259;50.214;18.620;2022-11-23T15:06:54;3.30;99.90
22678;DHT22;26259;50.214;18.620;2022-11-23T15:09:49;3.20;99.90
22678;DHT22;26259;50.214;18.620;2022-11-23T15:12:22;3.20;99.90
22678;DHT22;26259;50.214;18.620;2022-11-23T15:14:48;3.10;99.90
22678;DHT22;26259;50.214;18.620;2022-11-23T15:17:19;3.20;99.90
22678;DHT22;26259;50.214;18.620;2022-11-23T15:20:01;3.20;99.90
22678;DHT22;26259;50.214;18.620;2022-11-23T15:22:28;3.10;99.90
22678;DHT22;26259;50.214;18.620;2022-11-23T15:25:04;3.10;99.90
22678;DHT22;26259;50.214;18.620;2022-11-23T15:27:32;3.10;99.90
22678;DHT22;26259;50.214;18.620;2022-11-23T15:29:59;3.00;99.90
22678;DHT22;26259;50.214;18.620;2022-11-23T15:34:52;3.10;99.90
22678;DHT22;26259;50.214;18.620;2022-11-23T15:37:18;3.00;99.90
22678;DHT22;26259;50.214;18.620;2022-11-23T15:39:44;3.00;99.90
22678;DHT22;26259;50.214;18.620;2022-11-23T15:42:16;3.00;99.90
22678;DHT22;26259;50.214;18.620;2022-11-23T15:44:42;3.00;99.90
22678;DHT22;26259;50.214;18.620;2022-11-23T15:47:14;3.00;99.90
22678;DHT22;26259;50.214;18.620;2022-11-23T15:49:43;3.00;99.90
22678;DHT22;26259;50.214;18.620;2022-11-23T15:52:16;3.00;99.90
22678;DHT22;26259;50.214;18.620;2022-11-23T15:54:42;3.00;99.90
22678;DHT22;26259;50.214;18.620;2022-11-23T15:57:16;3.00;99.90
22678;DHT22;26259;50.214;18.620;2022-11-23T15:59:47;3.00;99.90
22678;DHT22;26259;50.214;18.620;2022-11-23T16:02:21;2.90;99.90
22678;DHT22;26259;50.214;18.620;2022-11-23T16:04:48;3.00;99.90
22678;DHT22;26259;50.214;18.620;2022-11-23T16:07:22;2.90;99.90
22678;DHT22;26259;50.214;18.620;2022-11-23T16:10:15;2.90;99.90
22678;DHT22;26259;50.214;18.620;2022-11-23T16:12:54;2.90;99.90
22678;DHT22;26259;50.214;18.620;2022-11-23T16:15:37;2.90;99.90
22678;DHT22;26259;50.214;18.620;2022-11-23T16:18:24;2.90;99.90
22678;DHT22;26259;50.214;18.620;2022-11-23T16:21:00;2.80;99.90
22678;DHT22;26259;50.214;18.620;2022-11-23T16:23:48;2.90;99.90
22678;DHT22;26259;50.214;18.620;2022-11-23T16:26:15;2.80;99.90
22678;DHT22;26259;50.214;18.620;2022-11-23T16:28:49;2.80;99.90
22678;DHT22;26259;50.214;18.620;2022-11-23T16:33:52;2.70;99.90
22678;DHT22;26259;50.214;18.620;2022-11-23T16:36:17;2.70;99.90
22678;DHT22;26259;50.214;18.620;2022-11-23T16:38:43;2.70;99.90
22678;DHT22;26259;50.214;18.620;2022-11-23T16:41:09;2.70;99.90
22678;DHT22;26259;50.214;18.620;2022-11-23T16:43:35;2.70;99.90
22678;DHT22;26259;50.214;18.620;2022-11-23T16:46:00;2.60;99.90
22678;DHT22;26259;50.214;18.620;2022-11-23T16:50:56;2.60;99.90
22678;DHT22;26259;50.214;18.620;2022-11-23T16:53:22;2.60;99.90
22678;DHT22;26259;50.214;18.620;2022-11-23T16:55:52;2.60;99.90
22678;DHT22;26259;50.214;18.620;2022-11-23T16:58:18;2.60;99.90
22678;DHT22;26259;50.214;18.620;2022-11-23T17:00:44;2.60;99.90
22678;DHT22;26259;50.214;18.620;2022-11-23T17:03:18;2.60;99.90
22678;DHT22;26259;50.214;18.620;2022-11-23T17:05:44;2.60;99.90
22678;DHT22;26259;50.214;18.620;2022-11-23T17:08:10;2.60;99.90
22678;DHT22;26259;50.214;18.620;2022-11-23T17:10:37;2.60;99.90
22678;DHT22;26259;50.214;18.620;2022-11-23T17:13:04;2.50;99.90
22678;DHT22;26259;50.214;18.620;2022-11-23T17:15:31;2.60;99.90
22678;DHT22;26259;50.214;18.620;2022-11-23T17:17:57;2.60;99.90
22678;DHT22;26259;50.214;18.620;2022-11-23T17:20:22;2.60;99.90
22678;DHT22;26259;50.214;18.620;2022-11-23T17:22:49;2.60;99.90
22678;DHT22;26259;50.214;18.620;2022-11-23T17:25:16;2.60;99.90
22678;DHT22;26259;50.214;18.620;2022-11-23T17:27:43;2.60;99.90
22678;DHT22;26259;50.214;18.620;2022-11-23T17:30:20;2.60;99.90
22678;DHT22;26259;50.214;18.620;2022-11-23T17:32:49;2.60;99.90
22678;DHT22;26259;50.214;18.620;2022-11-23T17:35:15;2.60;99.90
22678;DHT22;26259;50.214;18.620;2022-11-23T17:37:41;2.60;99.90
22678;DHT22;26259;50.214;18.620;2022-11-23T17:40:19;2.60;99.90
22678;DHT22;26259;50.214;18.620;2022-11-23T17:42:44;2.60;99.90
22678;DHT22;26259;50.214;18.620;2022-11-23T17:45:11;2.60;99.90